createdAt,value
2023-04-16T00:01:49.954Z,9.80
2023-04-16T00:04:52.343Z,9.52
2023-04-16T00:07:54.596Z,8.65
2023-04-16T00:10:56.825Z,8.95
2023-04-16T00:13:59.024Z,8.98
2023-04-16T00:17:01.310Z,8.30
2023-04-16T00:20:03.702Z,8.18
2023-04-16T00:23:05.939Z,8.95
2023-04-16T00:26:08.566Z,8.95
2023-04-16T00:29:11.049Z,9.05
2023-04-16T00:32:13.497Z,9.00
2023-04-16T00:35:15.835Z,9.43
2023-04-16T00:38:18.391Z,9.88
2023-04-16T00:41:20.761Z,9.98
2023-04-16T00:44:23.032Z,10.43
2023-04-16T00:47:25.463Z,8.90
2023-04-16T00:50:27.804Z,10.63
2023-04-16T00:53:30.717Z,8.75
2023-04-16T00:56:33.393Z,9.27
2023-04-16T00:59:35.733Z,7.95
2023-04-16T01:02:38.337Z,9.80
2023-04-16T01:05:40.710Z,8.90
2023-04-16T01:08:43.436Z,8.93
2023-04-16T01:11:45.834Z,8.82
2023-04-16T01:14:48.511Z,8.68
2023-04-16T01:17:50.947Z,8.17
2023-04-16T01:20:53.235Z,7.97
2023-04-16T01:23:55.713Z,8.07
2023-04-16T01:27:01.032Z,8.07
2023-04-16T01:30:03.467Z,7.65
2023-04-16T01:33:18.388Z,7.63
2023-04-16T01:36:20.706Z,7.68
2023-04-16T01:39:22.893Z,7.97
2023-04-16T01:42:25.342Z,7.90
2023-04-16T01:45:27.586Z,7.40
2023-04-16T01:48:29.892Z,7.63
2023-04-16T01:51:32.363Z,7.60
2023-04-16T01:54:34.554Z,7.53
2023-04-16T01:57:36.758Z,7.65
2023-04-16T02:00:39.340Z,8.48
2023-04-16T02:03:41.725Z,8.10
2023-04-16T02:06:44.722Z,7.13
2023-04-16T02:09:50.945Z,7.68
2023-04-16T02:12:53.162Z,7.78
2023-04-16T02:15:55.525Z,7.13
2023-04-16T02:19:16.208Z,7.80
2023-04-16T02:22:18.581Z,7.07
2023-04-16T02:25:20.877Z,7.72
2023-04-16T02:28:23.281Z,8.27
2023-04-16T02:31:26.471Z,8.85
2023-04-16T02:34:28.870Z,9.03
2023-04-16T02:37:31.126Z,8.55
2023-04-16T02:40:33.487Z,9.48
2023-04-16T02:43:35.759Z,9.25
2023-04-16T02:46:37.970Z,9.32
2023-04-16T02:49:40.317Z,8.73
2023-04-16T02:52:42.952Z,10.35
2023-04-16T02:55:52.933Z,9.25
2023-04-16T02:58:55.592Z,10.55
2023-04-16T03:01:57.983Z,10.43
2023-04-16T03:05:00.362Z,10.97
2023-04-16T03:08:03.588Z,11.07
2023-04-16T03:11:05.862Z,10.75
2023-04-16T03:14:08.035Z,11.75
2023-04-16T03:17:10.221Z,10.98
2023-04-16T03:20:12.925Z,11.83
2023-04-16T03:23:15.166Z,12.00
2023-04-16T03:26:17.407Z,11.70
2023-04-16T03:29:20.621Z,11.18
2023-04-16T03:32:23.329Z,12.40
2023-04-16T03:35:25.811Z,10.97
2023-04-16T03:38:28.065Z,11.13
2023-04-16T03:41:32.369Z,10.88
2023-04-16T03:44:35.116Z,11.40
2023-04-16T03:47:37.934Z,11.23
2023-04-16T03:50:40.489Z,10.90
2023-04-16T03:53:44.908Z,11.85
2023-04-16T03:56:48.691Z,11.60
2023-04-16T03:59:52.369Z,14.13
2023-04-16T04:02:55.566Z,13.30
2023-04-16T04:05:58.335Z,13.53
2023-04-16T04:09:04.486Z,12.18
2023-04-16T04:12:06.769Z,11.85
2023-04-16T04:15:10.396Z,11.38
2023-04-16T04:18:12.687Z,12.15
2023-04-16T04:21:15.030Z,11.47
2023-04-16T04:24:17.396Z,10.90
2023-04-16T04:27:20.369Z,11.70
2023-04-16T04:30:22.586Z,10.98
2023-04-16T04:33:28.161Z,9.73
2023-04-16T04:36:31.101Z,8.83
2023-04-16T04:39:33.333Z,9.85
2023-04-16T04:42:37.757Z,9.23
2023-04-16T04:45:40.507Z,10.02
2023-04-16T04:48:42.851Z,9.30
2023-04-16T04:51:45.238Z,9.33
2023-04-16T04:54:47.467Z,8.18
2023-04-16T04:57:50.320Z,9.07
2023-04-16T05:00:52.650Z,10.02
2023-04-16T05:03:54.952Z,8.52
2023-04-16T05:06:57.255Z,8.77
2023-04-16T05:09:59.468Z,8.18
2023-04-16T05:13:01.927Z,9.00
2023-04-16T05:16:04.293Z,8.00
2023-04-16T05:19:06.883Z,7.85
2023-04-16T05:22:09.249Z,8.30
2023-04-16T05:25:11.447Z,8.73
2023-04-16T05:28:13.668Z,7.78
2023-04-16T05:31:15.956Z,7.47
2023-04-16T05:34:18.188Z,7.93
2023-04-16T05:37:20.534Z,7.30
2023-04-16T05:40:22.778Z,7.43
2023-04-16T05:43:25.081Z,6.80
2023-04-16T05:46:27.249Z,6.70
2023-04-16T05:49:29.484Z,7.13
2023-04-16T05:52:31.663Z,6.73
2023-04-16T05:55:34.054Z,6.60
2023-04-16T05:58:36.315Z,6.22
2023-04-16T06:01:38.552Z,5.65
2023-04-16T06:04:40.795Z,5.72
2023-04-16T06:07:43.001Z,6.37
2023-04-16T06:10:48.254Z,5.82
2023-04-16T06:13:50.516Z,5.57
2023-04-16T06:16:52.664Z,5.00
2023-04-16T06:19:54.974Z,5.18
2023-04-16T06:22:57.232Z,4.70
2023-04-16T06:25:59.420Z,5.13
2023-04-16T06:29:01.622Z,5.45
2023-04-16T06:32:04.074Z,5.28
2023-04-16T06:35:06.655Z,5.10
2023-04-16T06:38:08.869Z,5.20
2023-04-16T06:41:11.172Z,5.30
2023-04-16T06:44:13.376Z,4.53
2023-04-16T06:47:16.257Z,4.82
2023-04-16T06:50:18.458Z,4.70
2023-04-16T06:53:20.626Z,4.33
2023-04-16T06:56:22.865Z,4.13
2023-04-16T06:59:25.141Z,3.58
2023-04-16T07:02:27.521Z,3.63
2023-04-16T07:05:29.857Z,3.58
2023-04-16T07:08:32.047Z,3.73
2023-04-16T07:11:34.369Z,3.30
2023-04-16T07:14:36.894Z,3.78
2023-04-16T07:17:39.185Z,3.47
2023-04-16T07:20:41.409Z,3.40
2023-04-16T07:23:43.558Z,3.20
2023-04-16T07:26:45.908Z,3.20
2023-04-16T07:29:50.539Z,3.28
2023-04-16T07:32:53.048Z,3.60
2023-04-16T07:35:55.213Z,3.85
2023-04-16T07:38:57.690Z,4.00
2023-04-16T07:41:59.941Z,4.10
2023-04-16T07:45:02.168Z,4.18
2023-04-16T07:48:05.519Z,4.07
2023-04-16T07:51:07.845Z,4.40
2023-04-16T07:54:10.734Z,3.67
2023-04-16T07:57:13.005Z,3.80
2023-04-16T08:00:15.404Z,3.95
2023-04-16T08:03:18.310Z,3.70
2023-04-16T08:06:21.169Z,4.13
2023-04-16T08:09:24.115Z,4.00
2023-04-16T08:12:26.389Z,4.25
2023-04-16T08:15:28.693Z,4.40
2023-04-16T08:18:30.892Z,4.03
2023-04-16T08:21:33.604Z,3.95
2023-04-16T08:24:35.858Z,3.70
2023-04-16T08:27:38.097Z,4.03
2023-04-16T08:30:40.477Z,3.83
2023-04-16T08:33:42.699Z,3.80
2023-04-16T08:36:46.085Z,3.80
2023-04-16T08:39:48.257Z,3.23
2023-04-16T08:42:53.517Z,3.00
2023-04-16T08:45:57.060Z,3.60
2023-04-16T08:48:59.452Z,3.20
2023-04-16T08:52:05.201Z,2.90
2023-04-16T08:55:12.095Z,2.53
2023-04-16T08:58:15.968Z,2.10
2023-04-16T09:01:19.034Z,2.08
2023-04-16T09:04:21.466Z,2.22
2023-04-16T09:07:24.310Z,2.75
2023-04-16T09:10:26.927Z,2.10
2023-04-16T09:13:29.097Z,2.00
2023-04-16T09:16:33.796Z,1.85
2023-04-16T09:19:36.060Z,2.17
2023-04-16T09:22:40.112Z,1.98
2023-04-16T09:25:42.310Z,1.60
2023-04-16T09:28:48.805Z,2.10
2023-04-16T09:32:04.453Z,1.90
2023-04-16T09:35:06.817Z,1.80
2023-04-16T09:38:09.001Z,2.15
2023-04-16T09:41:11.168Z,1.83
2023-04-16T09:44:13.465Z,1.98
2023-04-16T09:47:15.685Z,2.08
2023-04-16T09:50:19.290Z,2.05
2023-04-16T09:53:28.509Z,1.98
2023-04-16T09:56:30.913Z,2.20
2023-04-16T09:59:35.383Z,2.00
2023-04-16T10:02:41.802Z,2.10
2023-04-16T10:05:44.617Z,2.03
2023-04-16T10:08:49.588Z,1.95
2023-04-16T10:11:52.381Z,2.00
2023-04-16T10:14:54.599Z,1.70
2023-04-16T10:17:57.425Z,1.80
2023-04-16T10:20:59.930Z,2.00
2023-04-16T10:24:02.977Z,1.80
2023-04-16T10:27:06.552Z,1.63
2023-04-16T10:30:09.562Z,1.80
2023-04-16T10:33:11.924Z,2.17
2023-04-16T10:36:23.196Z,2.10
2023-04-16T10:39:27.814Z,2.05
2023-04-16T10:42:31.445Z,2.03
2023-04-16T10:45:38.046Z,2.00
2023-04-16T10:48:49.877Z,1.80
2023-04-16T10:51:56.761Z,2.00
2023-04-16T10:54:59.341Z,1.80
2023-04-16T10:58:01.506Z,1.80
2023-04-16T11:01:07.618Z,2.10
2023-04-16T11:04:22.450Z,1.55
2023-04-16T11:07:35.341Z,1.70
2023-04-16T11:10:39.553Z,1.80
2023-04-16T11:13:48.207Z,1.70
2023-04-16T11:16:50.482Z,1.30
2023-04-16T11:19:53.708Z,1.38
2023-04-16T11:22:56.798Z,1.65
2023-04-16T11:25:59.441Z,1.23
2023-04-16T11:29:01.695Z,1.10
2023-04-16T11:32:04.030Z,1.17
2023-04-16T11:35:16.812Z,0.90
2023-04-16T11:38:19.036Z,1.10
2023-04-16T11:41:21.966Z,1.13
2023-04-16T11:44:25.338Z,0.90
2023-04-16T11:47:27.886Z,1.10
2023-04-16T11:50:30.368Z,1.10
2023-04-16T11:53:32.640Z,0.88
2023-04-16T11:56:35.877Z,0.93
2023-04-16T11:59:38.128Z,0.93
2023-04-16T12:03:00.610Z,1.10
2023-04-16T12:06:07.740Z,1.10
2023-04-16T12:09:23.854Z,1.08
2023-04-16T12:12:31.625Z,1.08
2023-04-16T12:15:43.781Z,1.00
2023-04-16T12:18:59.208Z,0.90
2023-04-16T12:22:01.445Z,1.00
2023-04-16T12:25:13.653Z,0.95
2023-04-16T12:28:26.481Z,0.90
2023-04-16T12:31:38.402Z,0.80
2023-04-16T12:34:50.391Z,1.13
2023-04-16T12:37:52.693Z,0.80
2023-04-16T12:40:57.224Z,0.70
2023-04-16T12:44:07.093Z,0.85
2023-04-16T12:47:09.308Z,0.70
2023-04-16T12:50:11.637Z,0.70
2023-04-16T12:53:13.813Z,0.82
2023-04-16T12:56:16.817Z,0.70
2023-04-16T12:59:19.446Z,0.85
2023-04-16T13:02:21.840Z,0.80
2023-04-16T13:05:24.164Z,0.60
2023-04-16T13:08:26.380Z,0.93
2023-04-16T13:11:28.627Z,1.10
2023-04-16T13:14:30.922Z,0.60
2023-04-16T13:17:33.176Z,0.83
2023-04-16T13:20:36.005Z,0.90
2023-04-16T13:23:38.233Z,0.80
2023-04-16T13:26:40.506Z,0.80
2023-04-16T13:29:42.958Z,0.70
2023-04-16T13:32:45.528Z,0.63
2023-04-16T13:35:48.745Z,0.80
2023-04-16T13:38:51.101Z,0.95
2023-04-16T13:41:53.523Z,0.93
2023-04-16T13:44:55.961Z,0.85
2023-04-16T13:47:58.232Z,0.60
2023-04-16T13:51:00.625Z,0.80
2023-04-16T13:54:02.900Z,0.77
2023-04-16T13:57:05.351Z,0.80
2023-04-16T14:00:08.252Z,1.00
2023-04-16T14:03:11.306Z,0.90
2023-04-16T14:06:15.102Z,0.70
2023-04-16T14:09:17.380Z,0.75
2023-04-16T14:12:19.853Z,0.75
2023-04-16T14:15:22.185Z,1.10
2023-04-16T14:18:24.363Z,0.80
2023-04-16T14:21:27.442Z,0.90
2023-04-16T14:24:29.823Z,1.00
2023-04-16T14:27:32.299Z,1.00
2023-04-16T14:30:35.150Z,0.95
2023-04-16T14:33:37.365Z,0.80
2023-04-16T14:36:39.710Z,0.77
2023-04-16T14:39:42.073Z,1.05
2023-04-16T14:42:44.279Z,0.75
2023-04-16T14:45:46.897Z,0.73
2023-04-16T14:48:49.135Z,0.70
2023-04-16T14:51:52.466Z,0.77
2023-04-16T14:54:57.621Z,1.00
2023-04-16T14:57:59.985Z,0.80
2023-04-16T15:01:02.896Z,0.80
2023-04-16T15:04:08.976Z,0.60
2023-04-16T15:07:11.705Z,0.90
2023-04-16T15:10:14.082Z,0.77
2023-04-16T15:13:16.450Z,0.77
2023-04-16T15:16:18.817Z,0.80
2023-04-16T15:19:21.136Z,0.90
2023-04-16T15:22:23.543Z,1.05
2023-04-16T15:25:25.877Z,1.00
2023-04-16T15:28:28.071Z,0.98
2023-04-16T15:31:30.542Z,1.00
2023-04-16T15:34:33.148Z,0.93
2023-04-16T15:37:35.309Z,1.15
2023-04-16T15:40:37.592Z,1.33
2023-04-16T15:43:39.967Z,1.02
2023-04-16T15:46:42.472Z,1.00
2023-04-16T15:49:44.926Z,1.10
2023-04-16T15:52:47.533Z,1.00
2023-04-16T15:55:52.681Z,0.90
2023-04-16T15:58:54.983Z,0.80
2023-04-16T16:01:57.524Z,1.15
2023-04-16T16:05:00.795Z,0.90
2023-04-16T16:08:03.263Z,0.95
2023-04-16T16:11:07.241Z,1.10
2023-04-16T16:14:09.601Z,1.30
2023-04-16T16:17:12.012Z,1.20
2023-04-16T16:20:14.739Z,1.00
2023-04-16T16:23:17.172Z,0.82
2023-04-16T16:26:20.700Z,1.05
2023-04-16T16:29:23.078Z,1.05
2023-04-16T16:32:25.463Z,1.20
2023-04-16T16:35:27.760Z,1.40
2023-04-16T16:38:30.089Z,1.30
2023-04-16T16:41:32.808Z,1.00
2023-04-16T16:44:35.237Z,1.35
2023-04-16T16:47:37.606Z,1.30
2023-04-16T16:50:40.135Z,1.20
2023-04-16T16:53:42.459Z,1.33
2023-04-16T16:56:44.749Z,1.17
2023-04-16T16:59:47.333Z,1.00
2023-04-16T17:02:51.361Z,1.45
2023-04-16T17:05:54.238Z,1.30
2023-04-16T17:08:56.434Z,1.30
2023-04-16T17:11:58.911Z,1.70
2023-04-16T17:15:01.151Z,1.20
2023-04-16T17:18:03.683Z,1.50
2023-04-16T17:21:06.194Z,1.23
2023-04-16T17:24:08.504Z,1.50
2023-04-16T17:27:11.193Z,1.50
2023-04-16T17:30:14.361Z,1.45
2023-04-16T17:33:17.255Z,1.80
2023-04-16T17:36:23.036Z,1.70
2023-04-16T17:39:25.554Z,1.70
2023-04-16T17:42:27.983Z,1.80
2023-04-16T17:45:30.451Z,1.42
2023-04-16T17:48:32.861Z,1.90
2023-04-16T17:51:35.085Z,1.80
2023-04-16T17:54:37.406Z,2.28
2023-04-16T17:57:39.826Z,2.15
2023-04-16T18:00:42.543Z,2.30
2023-04-16T18:03:45.395Z,2.40
2023-04-16T18:06:48.097Z,1.83
2023-04-16T18:09:50.573Z,1.90
2023-04-16T18:12:53.057Z,2.10
2023-04-16T18:15:55.529Z,2.05
2023-04-16T18:18:58.475Z,1.70
2023-04-16T18:22:00.757Z,1.63
2023-04-16T18:25:04.415Z,1.80
2023-04-16T18:28:07.023Z,1.90
2023-04-16T18:31:09.603Z,1.88
2023-04-16T18:34:12.552Z,1.65
2023-04-16T18:37:15.071Z,2.10
2023-04-16T18:40:17.627Z,2.00
2023-04-16T18:43:20.249Z,1.95
2023-04-16T18:46:22.716Z,2.00
2023-04-16T18:49:25.688Z,1.88
2023-04-16T18:52:28.139Z,2.13
2023-04-16T18:55:31.062Z,1.98
2023-04-16T18:58:33.489Z,2.15
2023-04-16T19:01:35.949Z,2.10
2023-04-16T19:04:38.876Z,2.13
2023-04-16T19:07:41.889Z,2.23
2023-04-16T19:10:48.523Z,2.47
2023-04-16T19:13:50.803Z,2.70
2023-04-16T19:16:53.326Z,2.28
2023-04-16T19:19:55.750Z,2.35
2023-04-16T19:22:58.166Z,2.10
2023-04-16T19:26:01.541Z,2.47
2023-04-16T19:29:03.959Z,2.42
2023-04-16T19:32:06.207Z,2.90
2023-04-16T19:35:09.610Z,2.67
2023-04-16T19:38:12.074Z,2.50
2023-04-16T19:41:14.591Z,2.53
2023-04-16T19:44:17.104Z,2.55
2023-04-16T19:47:20.124Z,2.60
2023-04-16T19:50:22.393Z,2.80
2023-04-16T19:53:26.002Z,2.90
2023-04-16T19:56:28.389Z,2.70
2023-04-16T19:59:32.283Z,2.60
2023-04-16T20:02:34.753Z,2.80
2023-04-16T20:05:37.255Z,2.90
2023-04-16T20:08:39.644Z,2.83
2023-04-16T20:11:42.039Z,2.70
2023-04-16T20:14:44.927Z,2.88
2023-04-16T20:17:48.478Z,3.00
2023-04-16T20:20:50.921Z,2.83
2023-04-16T20:23:53.146Z,2.67
2023-04-16T20:26:56.587Z,2.65
2023-04-16T20:30:02.364Z,2.80
2023-04-16T20:33:08.222Z,2.75
2023-04-16T20:36:10.655Z,2.72
2023-04-16T20:39:13.166Z,2.10
2023-04-16T20:42:15.760Z,2.22
2023-04-16T20:45:18.555Z,2.53
2023-04-16T20:48:20.973Z,2.20
2023-04-16T20:51:23.198Z,2.50
2023-04-16T20:54:25.747Z,2.17
2023-04-16T20:57:29.647Z,2.15
2023-04-16T21:00:31.900Z,2.30
2023-04-16T21:03:34.465Z,2.78
2023-04-16T21:06:38.759Z,2.25
2023-04-16T21:09:41.303Z,2.37
2023-04-16T21:12:43.504Z,2.35
2023-04-16T21:15:46.135Z,2.05
2023-04-16T21:18:48.379Z,1.92
2023-04-16T21:21:50.831Z,2.00
2023-04-16T21:24:53.026Z,1.50
2023-04-16T21:27:55.465Z,1.80
2023-04-16T21:30:57.635Z,1.83
2023-04-16T21:33:59.888Z,2.00
2023-04-16T21:37:02.092Z,2.00
2023-04-16T21:40:07.234Z,1.73
2023-04-16T21:43:09.524Z,1.70
2023-04-16T21:46:11.851Z,1.60
2023-04-16T21:49:14.103Z,1.70
2023-04-16T21:52:22.183Z,2.00
2023-04-16T21:55:24.400Z,1.73
2023-04-16T21:58:26.715Z,1.88
2023-04-16T22:01:29.057Z,1.90
2023-04-16T22:04:38.471Z,2.00
2023-04-16T22:07:40.759Z,1.80
2023-04-16T22:10:42.987Z,1.90
2023-04-16T22:13:46.349Z,1.80
2023-04-16T22:16:49.924Z,1.83
2023-04-16T22:19:53.481Z,1.88
2023-04-16T22:22:58.642Z,1.80
2023-04-16T22:26:02.899Z,1.90
2023-04-16T22:29:05.422Z,1.80
2023-04-16T22:32:07.769Z,2.20
2023-04-16T22:35:10.431Z,1.65
2023-04-16T22:38:12.634Z,1.98
2023-04-16T22:41:14.842Z,1.63
2023-04-16T22:44:17.103Z,1.80
2023-04-16T22:47:19.331Z,1.70
2023-04-16T22:50:22.595Z,1.55
2023-04-16T22:53:24.773Z,1.48
2023-04-16T22:56:28.899Z,1.50
2023-04-16T22:59:31.242Z,1.80
2023-04-16T23:02:33.440Z,1.75
2023-04-16T23:05:35.863Z,1.88
2023-04-16T23:08:38.066Z,1.55
2023-04-16T23:11:40.456Z,1.60
2023-04-16T23:14:46.128Z,1.70
2023-04-16T23:17:48.440Z,2.05
2023-04-16T23:20:51.639Z,1.45
2023-04-16T23:23:54.451Z,1.60
2023-04-16T23:26:56.603Z,1.83
2023-04-16T23:29:59.024Z,1.75
2023-04-16T23:33:01.283Z,1.70
2023-04-16T23:36:03.610Z,1.33
2023-04-16T23:39:05.821Z,1.50
2023-04-16T23:42:08.119Z,1.50
2023-04-16T23:45:10.468Z,1.40
2023-04-16T23:48:12.652Z,1.63
2023-04-16T23:51:14.887Z,1.40
2023-04-16T23:54:17.372Z,1.70
2023-04-16T23:57:19.544Z,1.60
